Time;durP1;ratioP1;P1;durP2;ratioP2;P2;SDS_P1;SDS_P2;PMS_P1;PMS_P2;Temp;Humidity;BMP_temperature;BMP_pressure;BME280_temperature;BME280_humidity;BME280_pressure;Samples;Min_cycle;Max_cycle;Signal;HPM_P1;HPM_P2
2023/03/27 00:01:17;;;;;;;12.40;1.98;;;6.10;99.90;;;;;;5017122;28;20022;-69
2023/03/27 00:03:43;;;;;;;9.50;1.90;;;6.10;99.90;;;;;;5017337;28;20018;-69
2023/03/27 00:06:15;;;;;;;13.57;2.20;;;6.10;99.90;;;;;;5017538;28;20052;-69
2023/03/27 00:08:41;;;;;;;12.10;1.65;;;6.10;99.90;;;;;;5017680;28;20034;-69
2023/03/27 00:11:07;;;;;;;5.13;1.48;;;6.00;99.90;;;;;;5017849;28;20037;-69
2023/03/27 00:13:32;;;;;;;11.85;1.88;;;5.90;99.90;;;;;;5017197;28;20030;-69
2023/03/27 00:15:58;;;;;;;9.18;1.67;;;5.90;99.90;;;;;;5017911;28;20026;-69
2023/03/27 00:18:26;;;;;;;8.30;1.55;;;6.00;99.90;;;;;;5017395;28;20030;-69
2023/03/27 00:20:53;;;;;;;6.10;1.42;;;6.10;99.90;;;;;;5017091;28;20021;-69
2023/03/27 00:23:19;;;;;;;8.90;1.88;;;6.10;99.90;;;;;;5016914;28;20022;-69
2023/03/27 00:25:48;;;;;;;12.98;1.40;;;6.00;99.90;;;;;;5016737;28;20076;-69
2023/03/27 00:28:14;;;;;;;5.50;1.52;;;5.90;99.90;;;;;;5017713;28;20073;-69
2023/03/27 00:30:40;;;;;;;10.20;1.50;;;5.70;99.90;;;;;;5016828;28;20030;-69
2023/03/27 00:33:07;;;;;;;3.22;1.10;;;5.70;99.90;;;;;;5017197;28;20022;-69
2023/03/27 00:35:32;;;;;;;4.20;1.27;;;5.50;99.90;;;;;;5017343;28;20022;-69
2023/03/27 00:37:58;;;;;;;5.95;1.60;;;5.50;99.90;;;;;;5016715;28;20071;-69
2023/03/27 00:40:24;;;;;;;2.45;1.33;;;5.60;99.90;;;;;;5016498;28;20025;-69
2023/03/27 00:42:51;;;;;;;5.70;1.02;;;5.60;99.90;;;;;;5016879;28;20026;-69
2023/03/27 00:45:20;;;;;;;5.85;1.17;;;5.60;99.90;;;;;;5016453;28;20022;-69
2023/03/27 00:47:52;;;;;;;8.93;1.67;;;5.50;99.90;;;;;;4980120;28;1044303;-69
2023/03/27 00:50:21;;;;;;;4.57;0.98;;;5.60;99.90;;;;;;5018262;28;20024;-69
2023/03/27 00:52:53;;;;;;;7.55;1.02;;;5.50;99.90;;;;;;5017419;28;20085;-69
2023/03/27 00:55:19;;;;;;;;;;;5.40;99.90;;;;;;5017538;28;20022;-69
2023/03/27 00:57:50;;;;;;;11.05;1.55;;;5.50;99.90;;;;;;5018130;28;19910;-69
2023/03/27 01:00:15;;;;;;;4.63;1.15;;;5.60;99.90;;;;;;5018212;28;20017;-69
2023/03/27 01:02:43;;;;;;;7.13;1.35;;;5.60;99.90;;;;;;5017896;28;20024;-69
2023/03/27 01:05:10;;;;;;;13.32;1.15;;;5.60;99.90;;;;;;5017005;28;20022;-69
2023/03/27 01:07:36;;;;;;;5.55;1.20;;;5.60;99.90;;;;;;5016831;28;20030;-69
2023/03/27 01:10:05;;;;;;;8.57;1.23;;;5.60;99.90;;;;;;5016914;28;20029;-69
2023/03/27 01:12:49;;;;;;;5.13;1.00;;;5.50;99.90;;;;;;5017013;28;20040;-69
2023/03/27 01:15:24;;;;;;;7.18;0.93;;;5.50;99.90;;;;;;5017604;28;20033;-69
2023/03/27 01:18:15;;;;;;;8.20;1.70;;;5.50;99.90;;;;;;5017537;28;20069;-69
2023/03/27 01:21:23;;;;;;;3.47;1.00;;;5.50;99.90;;;;;;5017965;28;20026;-69
2023/03/27 01:24:04;;;;;;;6.38;1.25;;;5.50;99.90;;;;;;4984724;28;20030;-69
2023/03/27 01:26:40;;;;;;;6.25;1.23;;;5.50;99.90;;;;;;5016697;28;20030;-69
2023/03/27 01:29:21;;;;;;;14.48;2.70;;;5.50;99.90;;;;;;5017041;28;20034;-69
2023/03/27 01:32:23;;;;;;;8.15;1.92;;;5.50;99.90;;;;;;5017386;28;20105;-69
2023/03/27 01:35:16;;;;;;;8.13;1.20;;;5.50;99.90;;;;;;5017452;28;20109;-69
2023/03/27 01:38:06;;;;;;;4.50;0.75;;;5.40;99.90;;;;;;5016565;28;20065;-69
2023/03/27 01:40:38;;;;;;;13.23;1.20;;;5.30;99.90;;;;;;5016530;28;20026;-69
2023/03/27 01:43:07;;;;;;;;;;;5.30;99.90;;;;;;5016813;28;20044;-69
2023/03/27 01:45:53;;;;;;;8.68;1.23;;;5.30;99.90;;;;;;5016469;28;19928;-69
2023/03/27 01:48:35;;;;;;;10.02;2.05;;;5.30;99.90;;;;;;5040092;23;20061;-65
2023/03/27 01:51:07;;;;;;;5.28;1.20;;;5.40;99.90;;;;;;4996662;28;20096;-65
2023/03/27 01:53:41;;;;;;;11.10;1.23;;;5.20;99.90;;;;;;4996704;28;20023;-65
2023/03/27 01:56:17;;;;;;;9.13;1.77;;;5.20;99.90;;;;;;4996691;28;20037;-65
2023/03/27 01:58:46;;;;;;;8.48;1.23;;;5.10;99.90;;;;;;4997466;28;20025;-65
2023/03/27 02:01:18;;;;;;;8.30;1.75;;;5.10;99.90;;;;;;4996684;28;20105;-65
2023/03/27 02:03:46;;;;;;;12.32;1.35;;;5.10;99.90;;;;;;4996595;28;20026;-65
2023/03/27 02:06:17;;;;;;;11.73;1.02;;;5.20;99.90;;;;;;4996672;28;20031;-65
2023/03/27 02:08:58;;;;;;;5.70;1.33;;;5.20;99.90;;;;;;4996497;28;20038;-65
2023/03/27 02:11:28;;;;;;;5.32;1.20;;;5.20;99.90;;;;;;4996463;28;20117;-65
2023/03/27 02:14:04;;;;;;;1.85;0.85;;;5.10;99.90;;;;;;4996694;28;20026;-65
2023/03/27 02:16:35;;;;;;;12.10;2.22;;;5.00;99.90;;;;;;4996914;28;20057;-65
2023/03/27 02:19:06;;;;;;;3.60;1.55;;;5.00;99.90;;;;;;4997755;28;20027;-65
2023/03/27 02:21:31;;;;;;;8.80;1.15;;;5.00;99.90;;;;;;4997445;28;20030;-65
2023/03/27 02:24:00;;;;;;;12.57;1.42;;;5.00;99.90;;;;;;4998735;28;20026;-65
2023/03/27 02:26:27;;;;;;;7.97;1.20;;;5.00;99.90;;;;;;5000589;28;20034;-65
2023/03/27 02:29:30;;;;;;;15.32;1.88;;;4.90;99.90;;;;;;5000398;28;20026;-65
2023/03/27 02:32:29;;;;;;;10.68;1.40;;;5.00;99.90;;;;;;4985981;28;20034;-65
2023/03/27 02:35:01;;;;;;;6.65;1.35;;;4.90;99.90;;;;;;5000307;28;20026;-65
2023/03/27 02:37:55;;;;;;;11.60;1.40;;;4.80;99.90;;;;;;5000907;28;20054;-65
2023/03/27 02:40:37;;;;;;;8.88;1.42;;;4.80;99.90;;;;;;5000263;28;20089;-65
2023/03/27 02:43:15;;;;;;;7.28;1.38;;;4.80;99.90;;;;;;4999988;28;20032;-65
2023/03/27 02:46:14;;;;;;;4.60;1.55;;;4.80;99.90;;;;;;5000941;28;20019;-65
2023/03/27 02:48:45;;;;;;;4.47;1.10;;;4.80;99.90;;;;;;4999720;28;20031;-65
2023/03/27 02:51:55;;;;;;;9.38;1.83;;;4.80;99.90;;;;;;5000804;28;20018;-65
2023/03/27 02:54:29;;;;;;;9.05;1.50;;;4.80;99.90;;;;;;4997246;28;20060;-65
2023/03/27 02:57:00;;;;;;;2.85;1.17;;;4.80;99.90;;;;;;5000312;28;20027;-65
2023/03/27 02:59:44;;;;;;;7.85;1.80;;;4.80;99.90;;;;;;5000194;28;20050;-65
2023/03/27 03:02:16;;;;;;;5.07;1.20;;;4.90;99.90;;;;;;4999613;28;20022;-65
2023/03/27 03:04:47;;;;;;;4.75;1.25;;;4.90;99.90;;;;;;5000509;28;20030;-65
2023/03/27 03:07:13;;;;;;;3.47;1.27;;;4.80;99.90;;;;;;4999539;28;20058;-65
2023/03/27 03:09:39;;;;;;;8.68;1.52;;;4.80;99.90;;;;;;5000581;28;20058;-65
2023/03/27 03:12:06;;;;;;;9.95;1.58;;;4.80;99.90;;;;;;5000787;28;20030;-65
2023/03/27 03:14:35;;;;;;;3.30;0.88;;;4.80;99.90;;;;;;5000314;28;20026;-65
2023/03/27 03:17:01;;;;;;;5.30;1.17;;;4.80;99.90;;;;;;5000107;28;20030;-65
2023/03/27 03:19:26;;;;;;;9.40;1.60;;;4.80;99.90;;;;;;4999310;28;20027;-65
2023/03/27 03:21:52;;;;;;;4.10;1.10;;;4.80;99.90;;;;;;4999100;28;20026;-65
2023/03/27 03:24:20;;;;;;;12.80;1.50;;;4.80;99.90;;;;;;4999616;28;20145;-65
2023/03/27 03:26:48;;;;;;;8.38;1.70;;;4.70;99.90;;;;;;5000053;28;20026;-65
2023/03/27 03:29:14;;;;;;;13.73;1.52;;;4.70;99.90;;;;;;4999150;28;20026;-65
2023/03/27 03:31:50;;;;;;;4.82;1.65;;;4.70;99.90;;;;;;4999880;28;20105;-65
2023/03/27 03:34:17;;;;;;;6.05;1.42;;;4.70;99.90;;;;;;4998128;28;20060;-65
2023/03/27 03:36:47;;;;;;;3.65;1.00;;;4.70;99.90;;;;;;4998643;28;20022;-65
2023/03/27 03:39:14;;;;;;;6.70;1.10;;;4.70;99.90;;;;;;4998869;28;20092;-65
2023/03/27 03:41:40;;;;;;;4.93;1.25;;;4.70;99.90;;;;;;4998791;28;20053;-65
2023/03/27 03:44:07;;;;;;;11.32;1.45;;;4.70;99.90;;;;;;4998767;28;20096;-65
2023/03/27 03:46:32;;;;;;;9.18;2.45;;;4.70;99.90;;;;;;4998847;28;20057;-65
2023/03/27 03:48:58;;;;;;;19.65;2.03;;;4.60;99.90;;;;;;4998898;28;20038;-65
2023/03/27 03:51:24;;;;;;;8.98;2.72;;;4.50;99.90;;;;;;4998759;28;20022;-65
2023/03/27 03:53:50;;;;;;;4.57;1.42;;;4.50;99.90;;;;;;4999070;28;20081;-65
2023/03/27 03:56:15;;;;;;;5.80;1.42;;;4.50;99.90;;;;;;4999452;28;20026;-65
2023/03/27 03:58:42;;;;;;;6.13;1.77;;;4.50;99.90;;;;;;4998723;28;20023;-65
2023/03/27 04:01:09;;;;;;;2.30;1.15;;;4.40;99.90;;;;;;4998999;28;20024;-65
2023/03/27 04:03:35;;;;;;;11.00;1.63;;;4.30;99.90;;;;;;4999401;28;20097;-65
2023/03/27 04:06:04;;;;;;;6.70;1.42;;;4.40;99.90;;;;;;4999213;28;20026;-65
2023/03/27 04:08:30;;;;;;;6.75;1.73;;;4.30;99.90;;;;;;4998450;28;20050;-65
2023/03/27 04:10:56;;;;;;;13.88;3.42;;;4.30;99.90;;;;;;4999202;28;20033;-65
2023/03/27 04:13:22;;;;;;;8.18;1.60;;;4.20;99.90;;;;;;4998648;28;20022;-65
2023/03/27 04:15:48;;;;;;;12.88;1.77;;;4.20;99.90;;;;;;4999099;28;20026;-65
2023/03/27 04:18:13;;;;;;;8.77;1.50;;;4.30;99.90;;;;;;4999098;28;20036;-65
2023/03/27 04:20:40;;;;;;;5.45;1.30;;;4.10;99.90;;;;;;4998190;28;20057;-65
2023/03/27 04:23:06;;;;;;;8.05;1.58;;;4.00;99.90;;;;;;4999053;28;20033;-65
2023/03/27 04:25:33;;;;;;;5.45;1.60;;;4.10;99.90;;;;;;4999170;28;20024;-65
2023/03/27 04:28:01;;;;;;;3.22;1.40;;;4.10;99.90;;;;;;4998071;28;20037;-65
2023/03/27 04:30:27;;;;;;;8.60;1.27;;;4.20;99.90;;;;;;4997939;28;20031;-65
2023/03/27 04:32:53;;;;;;;6.97;1.67;;;4.30;99.90;;;;;;4998076;28;20061;-65
2023/03/27 04:35:20;;;;;;;3.85;1.13;;;4.10;99.90;;;;;;4998693;28;20026;-65
2023/03/27 04:37:47;;;;;;;6.18;1.35;;;4.00;99.90;;;;;;4998642;28;20106;-65
2023/03/27 04:40:14;;;;;;;5.43;1.30;;;3.80;99.90;;;;;;4997903;28;20027;-65
2023/03/27 04:42:42;;;;;;;7.75;1.50;;;3.70;99.90;;;;;;4998031;28;20046;-65
2023/03/27 04:45:15;;;;;;;8.98;2.00;;;3.70;99.90;;;;;;4998834;28;20034;-65
2023/03/27 04:47:41;;;;;;;10.82;1.70;;;3.70;99.90;;;;;;4997339;28;20045;-65
2023/03/27 04:50:08;;;;;;;7.70;1.92;;;3.60;99.90;;;;;;4997871;28;20038;-65
2023/03/27 04:52:34;;;;;;;11.55;1.42;;;3.60;99.90;;;;;;4998580;28;20045;-65
2023/03/27 04:55:00;;;;;;;6.22;1.23;;;3.60;99.90;;;;;;4997522;28;20027;-65
2023/03/27 04:57:29;;;;;;;13.50;1.75;;;3.50;99.90;;;;;;4997519;28;20065;-65
2023/03/27 04:59:56;;;;;;;3.67;1.30;;;3.60;99.90;;;;;;4997693;28;20050;-65
2023/03/27 05:02:21;;;;;;;13.77;1.65;;;3.50;99.90;;;;;;4997726;28;20054;-65
2023/03/27 05:04:47;;;;;;;5.90;1.67;;;3.50;99.90;;;;;;4998277;28;20047;-65
2023/03/27 05:07:14;;;;;;;2.60;1.30;;;3.60;99.90;;;;;;4997654;28;20220;-65
2023/03/27 05:09:39;;;;;;;12.15;1.73;;;3.60;99.90;;;;;;4997158;28;20122;-65
2023/03/27 05:12:05;;;;;;;13.32;1.67;;;3.70;99.90;;;;;;4997265;28;20065;-65
2023/03/27 05:14:31;;;;;;;5.07;1.48;;;3.70;99.90;;;;;;4997492;28;20057;-65
2023/03/27 05:16:56;;;;;;;4.88;1.50;;;3.70;99.90;;;;;;4997240;28;20023;-67
2023/03/27 05:19:23;;;;;;;3.97;1.23;;;3.70;99.90;;;;;;4997756;28;20030;-67
2023/03/27 05:21:48;;;;;;;5.45;1.30;;;3.80;99.90;;;;;;4997930;28;20022;-67
2023/03/27 05:24:14;;;;;;;6.25;1.33;;;3.80;99.90;;;;;;4997298;28;20113;-67
2023/03/27 05:26:40;;;;;;;7.15;1.42;;;3.80;99.90;;;;;;4996932;28;20125;-68
2023/03/27 05:29:07;;;;;;;8.00;2.08;;;3.80;99.90;;;;;;4997756;28;20065;-68
2023/03/27 05:31:34;;;;;;;10.30;1.40;;;3.60;99.90;;;;;;4997935;28;20050;-68
2023/03/27 05:34:00;;;;;;;5.65;1.80;;;3.60;99.90;;;;;;4996984;28;20030;-68
2023/03/27 05:36:27;;;;;;;3.63;1.70;;;3.60;99.90;;;;;;4997160;28;20034;-68
2023/03/27 05:38:53;;;;;;;6.38;2.08;;;3.50;99.90;;;;;;4997684;28;20026;-68
2023/03/27 05:41:19;;;;;;;3.60;1.63;;;3.40;99.90;;;;;;4996829;28;20018;-68
2023/03/27 05:43:45;;;;;;;7.47;2.13;;;3.50;99.90;;;;;;4996884;28;20029;-68
2023/03/27 05:46:12;;;;;;;10.60;1.70;;;3.40;99.90;;;;;;4997601;28;20027;-68
2023/03/27 05:48:37;;;;;;;14.00;2.00;;;3.50;99.90;;;;;;4997555;28;20033;-68
2023/03/27 05:51:05;;;;;;;4.45;1.50;;;3.50;99.90;;;;;;4997284;28;20038;-68
2023/03/27 05:53:30;;;;;;;14.82;2.17;;;3.50;99.90;;;;;;4996601;28;20033;-69
2023/03/27 05:55:56;;;;;;;5.82;1.73;;;3.60;99.90;;;;;;4996780;28;20026;-69
2023/03/27 05:58:21;;;;;;;8.35;1.75;;;3.60;99.90;;;;;;4998185;28;20053;-69
2023/03/27 06:00:48;;;;;;;6.95;1.95;;;3.60;99.90;;;;;;5000753;28;20117;-69
2023/03/27 06:03:14;;;;;;;10.32;2.15;;;3.60;99.90;;;;;;5000749;28;20093;-69
2023/03/27 06:05:40;;;;;;;13.63;2.28;;;3.70;99.90;;;;;;5000757;28;20026;-69
2023/03/27 06:08:12;;;;;;;11.52;3.05;;;3.80;99.90;;;;;;5001815;28;20023;-69
2023/03/27 06:10:42;;;;;;;;;;;3.80;99.90;;;;;;5000979;28;20026;-68
2023/03/27 06:13:11;;;;;;;9.57;2.53;;;3.90;99.90;;;;;;5000580;28;19905;-69
2023/03/27 06:15:40;;;;;;;15.77;4.20;;;4.10;99.90;;;;;;5000648;28;20028;-69
2023/03/27 06:18:05;;;;;;;7.47;1.98;;;4.20;99.90;;;;;;5000680;28;20130;-69
2023/03/27 06:20:34;;;;;;;7.43;1.65;;;4.20;99.90;;;;;;5000439;28;20022;-68
2023/03/27 06:23:00;;;;;;;15.35;4.10;;;4.30;99.90;;;;;;5000423;28;20018;-69
2023/03/27 06:25:27;;;;;;;8.02;2.05;;;4.30;99.90;;;;;;5001388;28;20014;-69
2023/03/27 06:27:53;;;;;;;4.65;1.25;;;4.40;99.90;;;;;;5000334;28;20031;-69
2023/03/27 06:30:20;;;;;;;8.63;1.33;;;4.40;99.90;;;;;;5000296;28;20027;-69
2023/03/27 06:32:51;;;;;;;14.70;2.33;;;4.50;99.90;;;;;;5001345;28;20037;-69
2023/03/27 06:35:18;;;;;;;15.75;2.00;;;4.60;99.90;;;;;;5000723;28;20030;-69
2023/03/27 06:37:47;;;;;;;12.50;2.38;;;4.70;99.90;;;;;;4980446;28;20037;-69
2023/03/27 06:40:23;;;;;;;12.18;2.63;;;4.80;99.90;;;;;;4980701;28;20023;-69
2023/03/27 06:43:06;;;;;;;9.40;1.50;;;4.90;99.90;;;;;;4980438;28;20027;-68
2023/03/27 06:45:40;;;;;;;11.98;2.00;;;4.90;99.90;;;;;;4981592;28;20034;-69
2023/03/27 06:48:05;;;;;;;14.35;2.33;;;4.90;99.90;;;;;;4981716;28;20035;-68
2023/03/27 06:50:32;;;;;;;4.93;1.45;;;5.00;99.90;;;;;;4980449;28;20065;-68
2023/03/27 06:52:58;;;;;;;7.15;1.63;;;5.00;99.90;;;;;;4981262;28;20025;-67
2023/03/27 06:55:26;;;;;;;8.18;2.25;;;5.10;99.90;;;;;;4980251;28;20022;-67
2023/03/27 06:57:54;;;;;;;8.00;1.85;;;5.20;99.90;;;;;;4980245;28;20033;-67
2023/03/27 07:00:23;;;;;;;10.98;1.20;;;5.20;99.90;;;;;;4980136;28;20018;-67
2023/03/27 07:02:56;;;;;;;5.40;1.63;;;5.30;99.90;;;;;;4981125;28;20027;-67
2023/03/27 07:05:23;;;;;;;11.68;2.08;;;5.30;99.90;;;;;;4981061;28;20030;-67
2023/03/27 07:07:49;;;;;;;16.38;1.65;;;5.30;99.90;;;;;;4980144;28;20023;-67
2023/03/27 07:10:15;;;;;;;7.13;1.38;;;5.40;99.90;;;;;;4980042;28;20082;-67
2023/03/27 07:12:45;;;;;;;6.20;1.25;;;5.30;99.90;;;;;;4980025;28;20029;-67
2023/03/27 07:15:11;;;;;;;6.93;1.90;;;5.30;99.90;;;;;;4980370;28;20062;-67
2023/03/27 07:17:36;;;;;;;8.80;1.40;;;5.30;99.90;;;;;;4980756;28;20027;-67
2023/03/27 07:20:04;;;;;;;7.93;1.17;;;5.40;99.90;;;;;;4979874;28;20022;-67
2023/03/27 07:22:30;;;;;;;4.57;1.52;;;5.30;99.90;;;;;;4980603;28;20019;-67
2023/03/27 07:24:55;;;;;;;9.48;1.60;;;5.50;99.90;;;;;;4980209;28;20025;-67
2023/03/27 07:27:23;;;;;;;5.85;2.22;;;5.50;99.90;;;;;;4980027;28;20022;-67
2023/03/27 07:29:48;;;;;;;6.78;1.95;;;5.60;99.90;;;;;;4980469;28;20121;-67
2023/03/27 07:32:14;;;;;;;11.50;1.95;;;5.60;99.90;;;;;;4979755;28;20027;-67
2023/03/27 07:34:40;;;;;;;12.55;2.08;;;5.60;99.90;;;;;;4980566;28;20035;-67
2023/03/27 07:37:05;;;;;;;13.30;1.77;;;5.60;99.90;;;;;;4979370;28;20101;-67
2023/03/27 07:39:31;;;;;;;6.28;1.48;;;5.70;99.90;;;;;;4980627;28;20023;-67
2023/03/27 07:41:56;;;;;;;9.10;1.90;;;5.70;99.90;;;;;;4979434;28;20023;-67
2023/03/27 07:44:22;;;;;;;13.77;2.00;;;5.90;99.90;;;;;;4980420;28;20027;-67
2023/03/27 07:46:50;;;;;;;12.75;2.33;;;5.90;99.90;;;;;;4979860;28;20035;-65
2023/03/27 07:49:16;;;;;;;11.18;2.42;;;6.00;99.90;;;;;;4979596;28;20031;-67
2023/03/27 07:51:43;;;;;;;6.13;1.88;;;6.10;99.90;;;;;;4980194;28;20070;-67
2023/03/27 07:54:12;;;;;;;10.68;1.67;;;6.10;99.90;;;;;;4980697;28;20142;-68
2023/03/27 07:56:40;;;;;;;8.13;1.88;;;6.20;99.90;;;;;;4979529;28;20029;-68
2023/03/27 07:59:06;;;;;;;4.07;1.48;;;6.20;99.90;;;;;;4979073;28;20033;-68
2023/03/27 08:01:31;;;;;;;12.48;2.10;;;6.10;99.90;;;;;;4979037;28;20019;-68
2023/03/27 08:03:58;;;;;;;8.50;2.22;;;6.10;99.90;;;;;;4979409;28;20025;-68
2023/03/27 08:06:23;;;;;;;10.02;1.90;;;6.10;99.90;;;;;;4979080;28;20061;-68
2023/03/27 08:08:51;;;;;;;11.63;2.13;;;6.20;99.90;;;;;;4995041;28;20027;-69
2023/03/27 08:11:17;;;;;;;7.68;1.60;;;6.10;99.90;;;;;;4979999;28;20073;-65
2023/03/27 08:13:43;;;;;;;3.85;1.05;;;6.00;99.90;;;;;;4979660;28;20031;-65
2023/03/27 08:16:15;;;;;;;3.03;1.10;;;5.90;99.90;;;;;;4978723;28;20027;-64
2023/03/27 08:18:41;;;;;;;6.55;1.48;;;5.90;99.90;;;;;;4994642;28;20021;-64
2023/03/27 08:21:08;;;;;;;6.72;1.45;;;5.90;99.90;;;;;;5008393;28;20109;-64
2023/03/27 08:23:46;;;;;;;9.02;1.40;;;5.80;99.90;;;;;;5008856;28;20022;-64
2023/03/27 08:26:13;;;;;;;6.78;1.10;;;6.00;99.90;;;;;;4998912;28;20109;-65
2023/03/27 08:28:39;;;;;;;8.40;1.08;;;6.10;99.90;;;;;;4998304;28;20022;-65
2023/03/27 08:31:14;;;;;;;7.78;1.17;;;6.20;99.90;;;;;;5005947;28;20034;-65
2023/03/27 08:33:41;;;;;;;9.80;1.23;;;6.40;99.90;;;;;;4997478;28;20122;-65
2023/03/27 08:36:08;;;;;;;9.30;1.10;;;6.60;99.90;;;;;;4999059;28;20103;-64
2023/03/27 08:38:34;;;;;;;3.72;0.60;;;6.60;99.90;;;;;;5014320;28;20030;-65
2023/03/27 08:41:02;;;;;;;10.13;1.20;;;6.60;99.90;;;;;;4997995;28;20026;-64
2023/03/27 08:43:35;;;;;;;6.03;1.45;;;6.70;99.90;;;;;;4998659;28;20019;-64
2023/03/27 08:46:19;;;;;;;1.70;0.70;;;6.70;99.90;;;;;;5014987;28;20054;-65
2023/03/27 08:48:52;;;;;;;7.95;0.90;;;6.70;99.90;;;;;;5013901;28;20038;-64
2023/03/27 08:51:24;;;;;;;4.90;0.80;;;6.70;99.90;;;;;;4998428;28;20025;-64
2023/03/27 08:53:57;;;;;;;1.23;0.80;;;6.80;99.90;;;;;;4998789;28;20072;-65
2023/03/27 08:56:24;;;;;;;4.22;0.90;;;7.00;99.90;;;;;;4997972;28;20101;-64
2023/03/27 08:58:50;;;;;;;6.55;1.67;;;7.00;99.90;;;;;;5013746;28;20036;-65
2023/03/27 09:01:30;;;;;;;4.15;0.82;;;7.00;99.90;;;;;;5014596;28;20027;-65
2023/03/27 09:04:03;;;;;;;10.48;0.90;;;7.00;99.90;;;;;;4998406;28;20033;-64
2023/03/27 09:06:40;;;;;;;3.13;1.05;;;7.10;99.90;;;;;;4998082;28;20106;-65
2023/03/27 09:09:39;;;;;;;4.18;0.80;;;7.10;99.90;;;;;;5013725;28;20026;-65
2023/03/27 09:12:14;;;;;;;5.18;0.80;;;7.20;99.90;;;;;;4997280;28;20041;-65
2023/03/27 09:14:47;;;;;;;3.05;0.88;;;7.20;99.90;;;;;;4997290;28;20057;-64
2023/03/27 09:17:25;;;;;;;11.00;1.23;;;7.10;99.90;;;;;;4997958;28;20030;-64
2023/03/27 09:19:54;;;;;;;4.18;1.77;;;6.90;99.90;;;;;;4998371;28;20022;-64
2023/03/27 09:22:32;;;;;;;4.53;0.90;;;6.90;99.90;;;;;;5014282;28;20026;-65
2023/03/27 09:25:02;;;;;;;4.75;1.25;;;6.90;99.90;;;;;;5013490;28;20019;-64
2023/03/27 09:27:34;;;;;;;11.23;1.13;;;6.90;99.90;;;;;;4998163;28;20033;-65
2023/03/27 09:30:09;;;;;;;5.82;1.30;;;6.90;99.90;;;;;;4997745;28;20033;-65
2023/03/27 09:32:36;;;;;;;2.30;0.90;;;6.90;99.90;;;;;;4996979;28;20041;-65
2023/03/27 09:35:03;;;;;;;3.60;0.57;;;7.10;99.90;;;;;;4998311;28;20077;-63
2023/03/27 09:37:29;;;;;;;2.90;0.77;;;7.20;99.90;;;;;;4996722;28;20034;-63
2023/03/27 09:39:59;;;;;;;2.28;0.63;;;7.20;99.90;;;;;;5013447;28;20049;-63
2023/03/27 09:42:30;;;;;;;10.93;1.23;;;7.30;99.90;;;;;;5014017;28;20026;-63
2023/03/27 09:45:00;;;;;;;5.82;0.95;;;7.50;99.90;;;;;;5014034;28;20026;-63
2023/03/27 09:47:56;;;;;;;3.22;0.70;;;7.60;99.90;;;;;;5013102;28;20035;-63
2023/03/27 09:50:40;;;;;;;6.13;0.65;;;7.60;99.90;;;;;;5013064;28;20037;-63
2023/03/27 09:53:09;;;;;;;2.90;0.80;;;7.30;99.90;;;;;;5013136;28;20078;-63
2023/03/27 09:56:04;;;;;;;2.88;0.88;;;7.20;99.90;;;;;;4997613;28;20034;-64
2023/03/27 09:58:35;;;;;;;4.18;1.67;;;6.90;99.90;;;;;;5012940;28;20042;-63
2023/03/27 10:01:06;;;;;;;4.35;0.98;;;6.60;99.90;;;;;;5013081;28;20032;-63
2023/03/27 10:03:58;;;;;;;1.52;0.82;;;6.40;99.90;;;;;;5012961;28;20068;-63
2023/03/27 10:06:29;;;;;;;;;;;6.40;99.90;;;;;;5010695;28;20073;-63
2023/03/27 10:08:59;;;;;;;6.30;0.80;;;6.50;99.90;;;;;;4996587;28;19955;-63
2023/03/27 10:11:30;;;;;;;3.50;0.70;;;6.60;99.90;;;;;;5013717;28;20122;-63
2023/03/27 10:13:58;;;;;;;2.25;0.80;;;6.80;99.90;;;;;;4997097;28;20088;-63
2023/03/27 10:16:24;;;;;;;5.07;1.35;;;7.00;99.90;;;;;;4996384;28;20030;-63
2023/03/27 10:18:54;;;;;;;4.82;0.88;;;7.20;99.90;;;;;;4996900;28;20034;-63
2023/03/27 10:21:37;;;;;;;2.35;0.57;;;7.40;99.90;;;;;;4997282;28;20026;-63
2023/03/27 10:24:26;;;;;;;0.90;0.50;;;7.60;99.90;;;;;;4997348;28;20062;-63
2023/03/27 10:26:58;;;;;;;4.57;0.60;;;7.20;99.90;;;;;;4997269;28;20077;-63
2023/03/27 10:29:33;;;;;;;2.75;0.75;;;7.00;99.90;;;;;;4997287;28;20185;-65
2023/03/27 10:32:02;;;;;;;5.38;1.35;;;7.10;99.90;;;;;;4996571;28;20030;-63
2023/03/27 10:34:38;;;;;;;8.65;1.10;;;7.30;99.90;;;;;;4997246;28;20046;-63
2023/03/27 10:37:19;;;;;;;8.20;1.60;;;7.20;99.90;;;;;;4997272;28;20052;-63
2023/03/27 10:39:46;;;;;;;9.30;0.98;;;7.20;99.90;;;;;;4997206;28;20026;-63
2023/03/27 10:42:13;;;;;;;1.05;0.65;;;7.60;99.90;;;;;;4997632;28;20029;-63
2023/03/27 10:44:39;;;;;;;5.65;0.90;;;8.00;99.90;;;;;;4998493;28;20026;-63
2023/03/27 10:47:23;;;;;;;3.08;0.70;;;7.90;99.90;;;;;;4999912;28;20030;-63
2023/03/27 10:50:14;;;;;;;3.92;0.88;;;8.00;99.90;;;;;;5000365;28;20045;-63
2023/03/27 10:52:58;;;;;;;3.53;1.02;;;8.20;99.90;;;;;;5000020;28;20033;-63
2023/03/27 10:55:53;;;;;;;2.95;0.90;;;8.60;99.90;;;;;;5000072;28;20076;-64
2023/03/27 10:58:40;;;;;;;1.65;1.05;;;8.70;99.90;;;;;;5000909;28;20058;-64
2023/03/27 11:01:22;;;;;;;6.47;1.35;;;9.10;99.90;;;;;;5000554;28;20049;-62
2023/03/27 11:03:55;;;;;;;3.58;0.75;;;9.80;99.90;;;;;;4999791;28;20022;-62
2023/03/27 11:06:26;;;;;;;5.65;0.70;;;10.00;99.90;;;;;;5001234;28;20025;-62
2023/03/27 11:09:03;;;;;;;2.87;0.50;;;10.40;99.90;;;;;;4999675;28;20023;-62
2023/03/27 11:11:39;;;;;;;4.22;0.88;;;10.60;99.90;;;;;;4999650;28;20261;-62
2023/03/27 11:14:17;;;;;;;1.67;0.60;;;10.80;99.90;;;;;;4999529;28;20057;-62
2023/03/27 11:16:48;;;;;;;3.03;0.80;;;11.10;99.90;;;;;;4999601;28;20023;-62
2023/03/27 11:19:39;;;;;;;3.35;0.52;;;11.00;99.90;;;;;;5000266;28;20018;-63
2023/03/27 11:22:22;;;;;;;6.40;0.93;;;11.20;99.90;;;;;;4999925;28;20031;-62
2023/03/27 11:25:03;;;;;;;2.00;0.63;;;11.30;99.90;;;;;;5000032;28;20053;-62
2023/03/27 11:27:38;;;;;;;5.32;1.17;;;11.10;99.90;;;;;;4999408;28;20026;-62
2023/03/27 11:30:07;;;;;;;6.45;0.73;;;11.50;99.90;;;;;;4999189;28;20030;-62
2023/03/27 11:32:51;;;;;;;2.65;0.93;;;11.60;99.90;;;;;;4999152;28;20109;-62
2023/03/27 11:35:27;;;;;;;6.47;0.80;;;11.60;99.90;;;;;;4999083;28;20030;-62
2023/03/27 11:37:58;;;;;;;3.15;0.57;;;11.70;99.90;;;;;;4999429;28;20113;-62
2023/03/27 11:40:29;;;;;;;3.80;0.55;;;12.00;99.90;;;;;;5000057;28;20026;-62
2023/03/27 11:42:56;;;;;;;5.40;0.55;;;11.80;99.90;;;;;;4999857;28;20022;-61
2023/03/27 11:45:26;;;;;;;3.90;0.70;;;12.20;99.90;;;;;;4998733;28;20034;-63
2023/03/27 11:48:03;;;;;;;4.28;0.70;;;12.10;99.90;;;;;;4999607;28;20026;-62
2023/03/27 11:50:34;;;;;;;2.47;0.80;;;11.90;99.90;;;;;;4998769;28;20031;-62
2023/03/27 11:53:24;;;;;;;2.67;0.60;;;12.10;99.90;;;;;;4999858;28;20026;-62
2023/03/27 11:56:11;;;;;;;6.05;1.27;;;13.10;99.90;;;;;;4997662;28;20041;-61
2023/03/27 11:59:03;;;;;;;3.63;0.80;;;13.20;99.90;;;;;;4998630;28;20037;-62
2023/03/27 12:02:06;;;;;;;5.90;0.90;;;13.30;98.20;;;;;;4999674;28;20023;-62
2023/03/27 12:04:52;;;;;;;1.48;0.60;;;13.40;98.70;;;;;;4998637;28;20025;-62
2023/03/27 12:07:45;;;;;;;2.00;0.80;;;13.20;96.70;;;;;;4999696;28;20026;-62
2023/03/27 12:10:28;;;;;;;2.63;0.40;;;12.40;96.00;;;;;;4999396;28;20023;-63
2023/03/27 12:13:17;;;;;;;3.60;0.63;;;12.30;97.90;;;;;;4998745;28;20037;-61
2023/03/27 12:16:13;;;;;;;3.05;0.73;;;12.40;99.30;;;;;;4999346;28;20034;-62
2023/03/27 12:18:48;;;;;;;3.75;0.93;;;12.70;99.90;;;;;;4998971;28;20026;-61
2023/03/27 12:21:28;;;;;;;4.63;0.70;;;12.60;97.70;;;;;;4999170;28;20029;-62
2023/03/27 12:24:21;;;;;;;4.82;0.65;;;13.80;94.00;;;;;;4998901;28;20029;-62
2023/03/27 12:26:52;;;;;;;2.92;0.77;;;14.70;91.90;;;;;;4998326;28;20094;-62
2023/03/27 12:29:56;;;;;;;2.95;0.80;;;14.20;92.80;;;;;;4998806;28;20092;-62
2023/03/27 12:32:36;;;;;;;2.70;1.33;;;13.10;92.20;;;;;;4998969;28;20029;-62
2023/03/27 12:35:09;;;;;;;4.95;1.05;;;12.40;93.80;;;;;;4997912;28;20030;-62
2023/03/27 12:37:42;;;;;;;4.57;0.80;;;12.10;99.10;;;;;;4998743;28;20117;-62
2023/03/27 12:40:27;;;;;;;3.45;0.70;;;11.20;99.90;;;;;;4997754;28;20061;-62
2023/03/27 12:43:04;;;;;;;6.40;0.82;;;10.60;99.90;;;;;;4997930;28;20112;-62
2023/03/27 12:45:30;;;;;;;1.70;0.60;;;10.20;99.90;;;;;;4998726;28;20030;-61
2023/03/27 12:48:08;;;;;;;1.77;0.70;;;10.30;99.90;;;;;;4998064;28;20081;-62
2023/03/27 12:50:49;;;;;;;2.25;0.70;;;10.90;99.90;;;;;;4997485;28;20034;-62
2023/03/27 12:53:38;;;;;;;4.10;0.95;;;11.50;99.90;;;;;;4997769;28;20034;-62
2023/03/27 12:56:16;;;;;;;3.58;0.90;;;11.30;99.90;;;;;;4989803;28;20030;-62
2023/03/27 12:58:44;;;;;;;2.78;0.73;;;11.00;99.90;;;;;;4997573;28;20073;-62
2023/03/27 13:01:16;;;;;;;2.70;0.55;;;10.80;99.90;;;;;;4997569;28;20026;-62
2023/03/27 13:04:00;;;;;;;3.03;0.63;;;10.80;99.90;;;;;;4997505;28;20030;-62
2023/03/27 13:06:32;;;;;;;1.23;0.60;;;11.20;99.90;;;;;;4997228;28;20034;-62
2023/03/27 13:09:07;;;;;;;2.55;0.80;;;12.10;99.90;;;;;;4997341;28;20049;-62
2023/03/27 13:11:44;;;;;;;1.58;0.70;;;12.70;99.90;;;;;;4997268;28;20030;-62
2023/03/27 13:14:44;;;;;;;3.13;0.45;;;13.30;99.90;;;;;;4998135;28;20037;-62
2023/03/27 13:17:46;;;;;;;1.00;0.68;;;13.50;99.90;;;;;;4998140;28;20022;-62
2023/03/27 13:20:37;;;;;;;2.65;0.47;;;13.90;99.90;;;;;;4997947;28;20022;-62
2023/03/27 13:23:18;;;;;;;1.88;0.68;;;13.90;98.40;;;;;;4997920;28;20084;-62